createdAt,value
2023-03-27T00:01:24.516Z,99565.16
2023-03-27T00:03:53.475Z,99566.00
2023-03-27T00:06:24.689Z,99572.09
2023-03-27T00:08:53.401Z,99574.13
2023-03-27T00:11:24.648Z,99572.41
2023-03-27T00:13:54.776Z,99582.31
2023-03-27T00:16:26.349Z,99587.84
2023-03-27T00:18:55.508Z,99601.34
2023-03-27T00:21:24.102Z,99596.97
2023-03-27T00:23:52.239Z,99607.81
2023-03-27T00:26:21.941Z,99616.00
2023-03-27T00:28:50.429Z,99621.50
2023-03-27T00:31:18.325Z,99638.56
2023-03-27T00:33:46.344Z,99639.56
2023-03-27T00:36:15.195Z,99650.41
2023-03-27T00:38:43.795Z,99633.16
2023-03-27T00:41:12.751Z,99652.50
2023-03-27T00:43:43.802Z,99662.31
2023-03-27T00:46:36.406Z,99667.78
2023-03-27T00:49:09.852Z,99681.13
2023-03-27T00:51:39.938Z,99690.03
2023-03-27T00:54:08.441Z,99693.69
2023-03-27T00:56:38.417Z,99690.16
2023-03-27T00:59:14.184Z,99707.66
2023-03-27T01:01:44.216Z,99696.16
2023-03-27T01:04:12.417Z,99708.56
2023-03-27T01:06:42.044Z,99713.09
2023-03-27T01:09:10.120Z,99725.38
2023-03-27T01:12:18.918Z,99729.75
2023-03-27T01:15:14.511Z,99736.13
2023-03-27T01:18:16.022Z,99740.72
2023-03-27T01:20:48.096Z,99733.94
2023-03-27T01:23:59.465Z,99742.59
2023-03-27T01:27:12.406Z,99746.50
2023-03-27T01:30:26.436Z,99752.06
2023-03-27T01:33:25.886Z,99756.56
2023-03-27T01:36:05.938Z,99762.13
2023-03-27T01:39:05.324Z,99768.44
2023-03-27T01:42:14.953Z,99767.03
2023-03-27T01:45:06.806Z,99778.50
2023-03-27T01:48:07.490Z,99777.94
2023-03-27T01:51:01.505Z,99791.19
2023-03-27T01:53:37.610Z,99794.81
2023-03-27T01:56:32.315Z,99806.59
2023-03-27T01:59:18.976Z,99815.63
2023-03-27T02:02:00.770Z,99822.81
2023-03-27T02:04:41.321Z,99833.50
2023-03-27T02:07:15.697Z,99837.28
2023-03-27T02:09:51.841Z,99845.31
2023-03-27T02:12:37.911Z,99851.59
2023-03-27T02:15:22.570Z,99873.06
2023-03-27T02:18:04.894Z,99867.13
2023-03-27T02:20:35.874Z,99876.88
2023-03-27T02:23:06.344Z,99878.84
2023-03-27T02:25:40.686Z,99882.44
2023-03-27T02:28:48.720Z,99892.22
2023-03-27T02:31:45.470Z,99890.59
2023-03-27T02:34:52.133Z,99900.63
2023-03-27T02:37:34.023Z,99914.59
2023-03-27T02:40:40.011Z,99927.25
2023-03-27T02:44:01.828Z,99932.72
2023-03-27T02:47:18.443Z,99943.50
2023-03-27T02:49:55.164Z,99936.41
2023-03-27T02:52:44.890Z,99955.72
2023-03-27T02:55:42.904Z,99962.22
2023-03-27T02:58:34.580Z,99971.34
2023-03-27T03:01:19.407Z,99973.34
2023-03-27T03:04:16.786Z,99990.31
2023-03-27T03:07:16.128Z,99988.91
2023-03-27T03:09:44.617Z,99993.47
2023-03-27T03:12:12.416Z,99988.53
2023-03-27T03:14:45.940Z,100006.97
2023-03-27T03:17:15.321Z,100018.63
2023-03-27T03:19:43.445Z,100011.81
2023-03-27T03:22:11.465Z,100031.44
2023-03-27T03:24:42.331Z,100038.78
2023-03-27T03:27:14.466Z,100050.38
2023-03-27T03:29:56.801Z,100058.34
2023-03-27T03:32:28.209Z,100074.28
2023-03-27T03:34:57.424Z,100080.44
2023-03-27T03:37:28.699Z,100079.63
2023-03-27T03:39:58.622Z,100096.44
2023-03-27T03:42:26.619Z,100110.72
2023-03-27T03:44:54.464Z,100112.75
2023-03-27T03:47:23.641Z,100116.31
2023-03-27T03:49:51.769Z,100119.91
2023-03-27T03:52:19.614Z,100135.84
2023-03-27T03:54:47.648Z,100134.13
2023-03-27T03:57:15.778Z,100153.81
2023-03-27T03:59:50.947Z,100155.72
2023-03-27T04:02:45.429Z,100153.25
2023-03-27T04:05:16.065Z,100167.34
2023-03-27T04:07:45.648Z,100169.97
2023-03-27T04:10:22.679Z,100184.25
2023-03-27T04:12:51.469Z,100191.31
2023-03-27T04:15:34.477Z,100193.19
2023-03-27T04:18:11.370Z,100217.00
2023-03-27T04:20:41.206Z,100219.84
2023-03-27T04:23:12.112Z,100212.03
2023-03-27T04:25:41.361Z,100223.41
2023-03-27T04:28:16.905Z,100239.28
2023-03-27T04:31:10.479Z,100240.22
2023-03-27T04:34:29.027Z,100236.88
2023-03-27T04:37:30.418Z,100257.13
2023-03-27T04:40:20.673Z,100258.06
2023-03-27T04:42:50.231Z,100262.44
2023-03-27T04:45:23.276Z,100272.19
2023-03-27T04:47:52.596Z,100278.44
2023-03-27T04:50:21.018Z,100280.97
2023-03-27T04:52:50.532Z,100291.56
2023-03-27T04:55:20.056Z,100293.34
2023-03-27T04:57:50.581Z,100308.28
2023-03-27T05:00:20.642Z,100316.03
2023-03-27T05:03:10.571Z,100324.84
2023-03-27T05:05:54.629Z,100322.25
2023-03-27T05:08:23.829Z,100336.28
2023-03-27T05:10:51.999Z,100349.44
2023-03-27T05:13:19.920Z,100360.00
2023-03-27T05:15:47.868Z,100358.28
2023-03-27T05:18:21.266Z,100360.88
2023-03-27T05:20:53.282Z,100379.25
2023-03-27T05:23:21.284Z,100383.69
2023-03-27T05:25:59.478Z,100390.81
2023-03-27T05:28:34.942Z,100390.09
2023-03-27T05:31:02.927Z,100407.78
2023-03-27T05:33:39.160Z,100400.09
2023-03-27T05:36:11.029Z,100413.22
2023-03-27T05:38:44.312Z,100408.03
2023-03-27T05:41:19.223Z,100397.47
2023-03-27T05:43:51.295Z,100417.78
2023-03-27T05:46:21.845Z,100433.66
2023-03-27T05:49:06.029Z,100440.81
2023-03-27T05:51:34.478Z,100444.28
2023-03-27T05:54:02.763Z,100443.38
2023-03-27T05:56:50.037Z,100452.28
2023-03-27T05:59:19.263Z,100469.06
2023-03-27T06:01:51.922Z,100460.34
2023-03-27T06:04:25.333Z,100483.28
2023-03-27T06:07:14.819Z,100477.25
2023-03-27T06:09:42.922Z,100493.97
2023-03-27T06:12:30.027Z,100502.91
2023-03-27T06:15:09.611Z,100506.53
2023-03-27T06:17:49.464Z,100508.41
2023-03-27T06:20:21.272Z,100523.34
2023-03-27T06:22:57.647Z,100526.81
2023-03-27T06:25:35.993Z,100539.06
2023-03-27T06:28:08.072Z,100531.88
2023-03-27T06:30:42.966Z,100531.06
2023-03-27T06:33:37.165Z,100543.16
2023-03-27T06:36:13.008Z,100550.13
2023-03-27T06:38:44.044Z,100554.31
2023-03-27T06:41:12.332Z,100557.66
2023-03-27T06:43:58.646Z,100561.97
2023-03-27T06:46:45.553Z,100564.50
2023-03-27T06:49:33.989Z,100578.44
2023-03-27T06:52:10.884Z,100579.25
2023-03-27T06:54:39.437Z,100587.91
2023-03-27T06:57:07.819Z,100589.50
2023-03-27T07:00:12.599Z,100591.84
2023-03-27T07:03:22.924Z,100603.28
2023-03-27T07:06:10.996Z,100604.97
2023-03-27T07:08:49.091Z,100613.56
2023-03-27T07:11:19.602Z,100606.34
2023-03-27T07:13:59.422Z,100607.22
2023-03-27T07:16:28.864Z,100623.19
2023-03-27T07:19:02.171Z,100630.19
2023-03-27T07:21:32.872Z,100629.31
2023-03-27T07:24:03.097Z,100646.13
2023-03-27T07:26:37.178Z,100632.06
2023-03-27T07:29:11.482Z,100639.09
2023-03-27T07:31:57.750Z,100651.34
2023-03-27T07:34:38.728Z,100646.88
2023-03-27T07:37:08.342Z,100653.03
2023-03-27T07:39:42.803Z,100661.06
2023-03-27T07:42:10.701Z,100666.31
2023-03-27T07:44:57.397Z,100670.75
2023-03-27T07:47:30.889Z,100669.94
2023-03-27T07:49:59.671Z,100679.53
2023-03-27T07:52:27.426Z,100684.78
2023-03-27T07:54:59.988Z,100690.03
2023-03-27T07:58:00.548Z,100703.16
2023-03-27T08:00:36.198Z,100703.94
2023-03-27T08:03:15.888Z,100694.09
2023-03-27T08:05:56.455Z,100708.00
2023-03-27T08:08:27.763Z,100706.22
2023-03-27T08:10:59.882Z,100706.97
2023-03-27T08:13:37.089Z,100709.44
2023-03-27T08:16:11.311Z,100712.59
2023-03-27T08:18:39.276Z,100719.03
2023-03-27T08:21:10.450Z,100723.13
2023-03-27T08:23:41.748Z,100735.22
2023-03-27T08:26:29.841Z,100729.00
2023-03-27T08:29:01.835Z,100733.28
2023-03-27T08:31:37.337Z,100729.75
2023-03-27T08:34:06.551Z,100732.31
2023-03-27T08:36:47.919Z,100747.31
2023-03-27T08:39:16.854Z,100739.25
2023-03-27T08:42:03.154Z,100748.72
2023-03-27T08:44:35.423Z,100757.44
2023-03-27T08:47:35.674Z,100753.81
2023-03-27T08:50:29.151Z,100754.56
2023-03-27T08:53:28.413Z,100753.59
2023-03-27T08:55:58.982Z,100760.59
2023-03-27T08:58:34.572Z,100758.84
2023-03-27T09:01:36.638Z,100756.38
2023-03-27T09:04:37.654Z,100771.66
2023-03-27T09:07:38.174Z,100760.38
2023-03-27T09:10:34.888Z,100760.31
2023-03-27T09:13:18.831Z,100767.16
2023-03-27T09:16:36.240Z,100777.56
2023-03-27T09:19:08.646Z,100785.28
2023-03-27T09:21:56.480Z,100782.38
2023-03-27T09:24:47.036Z,100780.59
2023-03-27T09:27:37.661Z,100778.56
2023-03-27T09:30:33.600Z,100782.72
2023-03-27T09:33:16.018Z,100784.28
2023-03-27T09:35:47.231Z,100793.34
2023-03-27T09:38:38.658Z,100788.63
2023-03-27T09:41:53.827Z,100782.19
2023-03-27T09:44:27.930Z,100786.16
2023-03-27T09:47:13.200Z,100790.25
2023-03-27T09:50:02.511Z,100795.25
2023-03-27T09:52:48.018Z,100792.34
2023-03-27T09:55:57.018Z,100796.38
2023-03-27T09:58:27.805Z,100796.09
2023-03-27T10:01:19.886Z,100798.75
2023-03-27T10:03:59.911Z,100787.38
2023-03-27T10:06:49.258Z,100788.91
2023-03-27T10:09:37.872Z,100801.19
2023-03-27T10:12:16.564Z,100790.31
2023-03-27T10:14:53.155Z,100796.13
2023-03-27T10:17:40.008Z,100786.19
2023-03-27T10:20:18.921Z,100789.44
2023-03-27T10:23:01.437Z,100804.72
2023-03-27T10:25:40.095Z,100804.31
2023-03-27T10:28:41.575Z,100807.69
2023-03-27T10:31:36.261Z,100812.16
2023-03-27T10:34:59.124Z,100806.09
2023-03-27T10:37:34.611Z,100806.72
2023-03-27T10:40:34.863Z,100791.31
2023-03-27T10:43:22.104Z,100801.97
2023-03-27T10:45:54.925Z,100802.88
2023-03-27T10:49:04.297Z,100811.72
2023-03-27T10:52:05.169Z,100811.78
2023-03-27T10:55:22.267Z,100812.63
2023-03-27T10:58:00.236Z,100801.03
2023-03-27T11:00:42.552Z,100817.25
2023-03-27T11:03:33.227Z,100815.88
2023-03-27T11:06:17.744Z,100817.59
2023-03-27T11:09:16.185Z,100832.53
2023-03-27T11:12:08.050Z,100833.31
2023-03-27T11:14:59.170Z,100834.91
2023-03-27T11:17:41.507Z,100843.03
2023-03-27T11:20:44.242Z,100851.38
2023-03-27T11:23:40.843Z,100852.63
2023-03-27T11:26:19.674Z,100846.53
2023-03-27T11:29:19.133Z,100850.53
2023-03-27T11:31:53.677Z,100846.63
2023-03-27T11:35:13.544Z,100844.19
2023-03-27T11:38:03.889Z,100844.44
2023-03-27T11:40:44.741Z,100838.53
2023-03-27T11:43:17.273Z,100842.41
2023-03-27T11:46:04.423Z,100845.19
2023-03-27T11:48:58.147Z,100847.34
2023-03-27T11:51:44.692Z,100855.53
2023-03-27T11:54:48.734Z,100852.47
2023-03-27T11:57:26.368Z,100845.97
2023-03-27T12:00:22.012Z,100855.53
2023-03-27T12:03:30.412Z,100852.94
2023-03-27T12:06:32.684Z,100858.22
2023-03-27T12:10:03.970Z,100863.16
2023-03-27T12:13:42.723Z,100873.31
2023-03-27T12:16:43.320Z,100877.38
2023-03-27T12:19:52.481Z,100886.88
2023-03-27T12:22:59.022Z,100924.97
2023-03-27T12:25:49.298Z,100928.94
2023-03-27T12:29:25.249Z,100939.59
2023-03-27T12:32:49.845Z,100935.97
2023-03-27T12:35:24.330Z,100927.50
2023-03-27T12:38:05.217Z,100926.69
2023-03-27T12:40:52.209Z,100940.31
2023-03-27T12:43:33.755Z,100936.13
2023-03-27T12:46:25.132Z,100941.38
2023-03-27T12:49:01.709Z,100930.63
2023-03-27T12:51:48.291Z,100928.03
2023-03-27T12:54:34.616Z,100941.44
2023-03-27T12:57:25.059Z,100933.69
2023-03-27T13:00:08.804Z,100930.31
2023-03-27T13:02:50.453Z,100931.44
2023-03-27T13:06:20.987Z,100936.09
2023-03-27T13:09:10.860Z,100926.44
2023-03-27T13:12:05.370Z,100920.25
2023-03-27T13:15:14.769Z,100925.53
2023-03-27T13:18:07.586Z,100919.13
2023-03-27T13:20:53.560Z,100921.47
2023-03-27T13:23:49.609Z,100917.56
2023-03-27T13:26:48.623Z,100911.78
2023-03-27T13:29:22.038Z,100905.50
2023-03-27T13:32:25.558Z,100899.88
2023-03-27T13:35:21.992Z,100913.59
2023-03-27T13:37:53.661Z,100918.66
2023-03-27T13:40:35.537Z,100922.81
2023-03-27T13:43:32.421Z,100934.03
2023-03-27T13:46:07.773Z,100933.25
2023-03-27T13:49:16.340Z,100947.34
2023-03-27T13:52:12.419Z,100955.41
2023-03-27T13:55:05.985Z,100957.47
2023-03-27T13:58:34.258Z,100946.50
2023-03-27T14:01:31.648Z,100954.22
2023-03-27T14:04:27.705Z,100969.00
2023-03-27T14:08:13.861Z,100970.66
2023-03-27T14:11:23.713Z,100979.94
2023-03-27T14:14:33.437Z,100972.25
2023-03-27T14:17:38.649Z,100959.28
2023-03-27T14:20:19.044Z,100957.72
2023-03-27T14:23:26.493Z,100956.09
2023-03-27T14:26:05.826Z,100962.34
2023-03-27T14:29:01.645Z,100957.94
2023-03-27T14:31:38.598Z,100951.03
2023-03-27T14:34:24.811Z,100948.47
2023-03-27T14:37:29.055Z,100956.28
2023-03-27T14:40:01.013Z,100955.38
2023-03-27T14:42:46.820Z,100954.41
2023-03-27T14:45:27.629Z,100953.47
2023-03-27T14:48:00.268Z,100960.47
2023-03-27T14:50:38.227Z,100962.19
2023-03-27T14:53:10.952Z,100961.25
2023-03-27T14:56:04.388Z,100964.72
2023-03-27T14:59:03.104Z,100971.75
2023-03-27T15:01:43.881Z,100974.34
2023-03-27T15:04:14.772Z,100960.19
2023-03-27T15:06:45.200Z,100965.34
2023-03-27T15:09:24.143Z,100968.69
2023-03-27T15:12:24.228Z,100976.41
2023-03-27T15:14:54.884Z,100974.44
2023-03-27T15:17:23.601Z,100963.66
2023-03-27T15:20:14.477Z,100957.09
2023-03-27T15:23:01.340Z,100961.41
2023-03-27T15:25:42.675Z,100957.66
2023-03-27T15:28:24.907Z,100959.19
2023-03-27T15:31:00.356Z,100965.25
2023-03-27T15:34:03.304Z,100960.75
2023-03-27T15:36:37.563Z,100958.97
2023-03-27T15:39:07.260Z,100953.66
2023-03-27T15:41:40.492Z,100964.16
2023-03-27T15:44:17.157Z,100965.03
2023-03-27T15:46:58.748Z,100966.03
2023-03-27T15:49:38.669Z,100954.56
2023-03-27T15:52:32.238Z,100975.81
2023-03-27T15:55:01.479Z,100974.22
2023-03-27T15:57:35.091Z,100981.28
2023-03-27T16:00:14.650Z,100986.47
2023-03-27T16:02:43.272Z,100980.47
2023-03-27T16:05:16.938Z,100987.47
2023-03-27T16:07:48.577Z,100978.56
2023-03-27T16:10:32.759Z,100971.34
2023-03-27T16:13:04.014Z,100970.59
2023-03-27T16:15:45.550Z,100968.84
2023-03-27T16:18:46.295Z,100956.53
2023-03-27T16:21:14.568Z,100963.75
2023-03-27T16:23:43.920Z,100963.72
2023-03-27T16:26:17.199Z,100969.06
2023-03-27T16:28:45.236Z,100973.41
2023-03-27T16:31:32.916Z,100977.91
2023-03-27T16:34:01.233Z,100977.97
2023-03-27T16:36:38.882Z,100983.28
2023-03-27T16:39:09.157Z,100983.22
2023-03-27T16:41:38.796Z,100976.16
2023-03-27T16:44:06.571Z,100993.09
2023-03-27T16:46:34.753Z,100979.94
2023-03-27T16:49:03.764Z,100987.09
2023-03-27T16:51:32.626Z,100980.16
2023-03-27T16:54:02.022Z,100989.88
2023-03-27T16:56:32.025Z,100992.59
2023-03-27T16:59:01.402Z,100989.06
2023-03-27T17:01:29.289Z,100996.97
2023-03-27T17:03:59.666Z,100993.50
2023-03-27T17:06:27.658Z,101004.19
2023-03-27T17:08:55.942Z,101013.94
2023-03-27T17:11:24.685Z,101014.81
2023-03-27T17:13:52.733Z,101009.56
2023-03-27T17:16:20.751Z,101023.66
2023-03-27T17:18:48.531Z,101029.81
2023-03-27T17:21:16.507Z,101031.53
2023-03-27T17:23:48.171Z,101035.09
2023-03-27T17:26:23.302Z,101023.94
2023-03-27T17:28:51.251Z,101030.03
2023-03-27T17:31:19.429Z,101037.09
2023-03-27T17:33:47.359Z,101038.00
2023-03-27T17:36:26.749Z,101045.94
2023-03-27T17:38:57.897Z,101041.59
2023-03-27T17:41:28.808Z,101033.81
2023-03-27T17:43:56.605Z,101049.59
2023-03-27T17:46:24.417Z,101062.91
2023-03-27T17:48:52.462Z,101061.09
2023-03-27T17:51:21.579Z,101073.47
2023-03-27T17:53:53.206Z,101079.66
2023-03-27T17:56:21.149Z,101087.69
2023-03-27T17:58:52.269Z,101093.91
2023-03-27T18:01:25.138Z,101109.81
2023-03-27T18:03:53.140Z,101119.56
2023-03-27T18:06:21.093Z,101121.31
2023-03-27T18:08:50.011Z,101108.16
2023-03-27T18:11:18.201Z,101111.69
2023-03-27T18:13:51.281Z,101103.94
2023-03-27T18:16:23.249Z,101125.09
2023-03-27T18:18:54.200Z,101128.72
2023-03-27T18:21:22.300Z,101125.34
2023-03-27T18:23:51.568Z,101120.06
2023-03-27T18:26:21.923Z,101117.47
2023-03-27T18:28:49.825Z,101128.03
2023-03-27T18:31:18.188Z,101142.25
2023-03-27T18:33:46.139Z,101150.28
2023-03-27T18:36:13.922Z,101155.66
2023-03-27T18:38:42.440Z,101173.50
2023-03-27T18:41:10.885Z,101176.31
2023-03-27T18:43:39.354Z,101173.03
2023-03-27T18:46:08.743Z,101185.41
2023-03-27T18:48:36.602Z,101177.56
2023-03-27T18:51:08.499Z,101190.00
2023-03-27T18:53:38.347Z,101193.56
2023-03-27T18:56:07.299Z,101195.38
2023-03-27T18:58:36.042Z,101195.34
2023-03-27T19:01:12.310Z,101204.22
2023-03-27T19:03:43.484Z,101201.66
2023-03-27T19:06:12.540Z,101206.13
2023-03-27T19:08:44.591Z,101209.72
2023-03-27T19:11:12.809Z,101198.38
2023-03-27T19:13:59.296Z,101201.88
2023-03-27T19:16:31.488Z,101215.19
2023-03-27T19:19:17.841Z,101215.22
2023-03-27T19:21:54.788Z,101222.31
2023-03-27T19:24:44.377Z,101228.56
2023-03-27T19:27:23.438Z,101225.97
2023-03-27T19:29:53.695Z,101221.53
2023-03-27T19:32:22.077Z,101225.97
2023-03-27T19:34:52.308Z,101205.72
2023-03-27T19:37:20.474Z,101195.06
2023-03-27T19:39:48.297Z,101203.81
2023-03-27T19:42:16.316Z,101215.22
2023-03-27T19:44:44.201Z,101211.66
2023-03-27T19:47:12.675Z,101209.84
2023-03-27T19:49:41.117Z,101213.34
2023-03-27T19:52:20.923Z,101219.50
2023-03-27T19:54:48.970Z,101219.50
2023-03-27T19:57:16.901Z,101218.59
2023-03-27T19:59:47.226Z,101225.63
2023-03-27T20:02:18.876Z,101230.94
2023-03-27T20:04:49.628Z,101238.94
2023-03-27T20:07:20.288Z,101245.13
2023-03-27T20:09:48.680Z,101238.22
2023-03-27T20:12:19.751Z,101241.81
2023-03-27T20:14:58.149Z,101253.25
2023-03-27T20:17:37.685Z,101253.31
2023-03-27T20:20:10.264Z,101252.34
2023-03-27T20:22:54.104Z,101253.28
2023-03-27T20:25:25.701Z,101249.72
2023-03-27T20:27:53.633Z,101261.28
2023-03-27T20:30:24.434Z,101260.44
2023-03-27T20:32:52.725Z,101270.22
2023-03-27T20:35:24.626Z,101279.09
2023-03-27T20:37:56.052Z,101265.94
2023-03-27T20:40:25.990Z,101266.16
2023-03-27T20:43:02.924Z,101273.13
2023-03-27T20:45:31.435Z,101262.56
2023-03-27T20:48:03.128Z,101279.31
2023-03-27T20:50:35.199Z,101277.59
2023-03-27T20:53:04.395Z,101279.41
2023-03-27T20:55:39.294Z,101284.72
2023-03-27T20:58:13.892Z,101276.84
2023-03-27T21:00:45.941Z,101282.19
2023-03-27T21:03:14.367Z,101288.38
2023-03-27T21:05:42.422Z,101285.75
2023-03-27T21:08:11.194Z,101281.38
2023-03-27T21:10:39.049Z,101293.72
2023-03-27T21:13:07.135Z,101302.59
2023-03-27T21:15:35.369Z,101292.94
2023-03-27T21:18:03.423Z,101295.63
2023-03-27T21:20:32.733Z,101293.03
2023-03-27T21:23:02.509Z,101289.53
2023-03-27T21:25:31.113Z,101301.00
2023-03-27T21:28:06.471Z,101302.81
2023-03-27T21:30:46.896Z,101299.31
2023-03-27T21:33:16.583Z,101307.44
2023-03-27T21:35:47.418Z,101298.63
2023-03-27T21:38:16.927Z,101306.56
2023-03-27T21:40:47.203Z,101304.88
2023-03-27T21:43:15.879Z,101305.78
2023-03-27T21:45:44.259Z,101311.09
2023-03-27T21:48:12.162Z,101314.66
2023-03-27T21:50:40.276Z,101312.00
2023-03-27T21:53:13.562Z,101307.63
2023-03-27T21:55:41.246Z,101319.06
2023-03-27T21:58:09.077Z,101319.09
2023-03-27T22:00:37.044Z,101318.19
2023-03-27T22:03:06.784Z,101319.09
2023-03-27T22:05:38.313Z,101322.59
2023-03-27T22:08:06.759Z,101322.63
2023-03-27T22:10:36.077Z,101326.16
2023-03-27T22:13:04.718Z,101323.53
2023-03-27T22:15:32.785Z,101339.41
2023-03-27T22:18:01.234Z,101334.13
2023-03-27T22:20:31.030Z,101332.41
2023-03-27T22:23:03.366Z,101342.09
2023-03-27T22:25:31.346Z,101343.84
2023-03-27T22:28:01.309Z,101335.97
2023-03-27T22:30:29.645Z,101346.53
2023-03-27T22:33:06.268Z,101342.13
2023-03-27T22:35:34.906Z,101344.75
2023-03-27T22:38:02.631Z,101356.25
2023-03-27T22:40:31.070Z,101350.97
2023-03-27T22:42:58.953Z,101365.94
2023-03-27T22:45:26.887Z,101366.00
2023-03-27T22:47:54.952Z,101382.78
2023-03-27T22:50:23.324Z,101386.31
2023-03-27T22:52:51.156Z,101382.84
2023-03-27T22:55:18.940Z,101386.38
2023-03-27T22:57:46.881Z,101386.41
2023-03-27T23:00:15.776Z,101385.53
2023-03-27T23:02:46.181Z,101386.41
2023-03-27T23:05:14.258Z,101395.22
2023-03-27T23:07:42.675Z,101391.72
2023-03-27T23:10:10.856Z,101389.09
2023-03-27T23:12:38.685Z,101395.28
2023-03-27T23:15:07.450Z,101397.91
2023-03-27T23:17:35.367Z,101396.16
2023-03-27T23:20:04.323Z,101397.94
2023-03-27T23:22:32.025Z,101392.66
2023-03-27T23:24:59.832Z,101404.13
2023-03-27T23:27:27.539Z,101393.56
2023-03-27T23:29:55.299Z,101407.66
2023-03-27T23:32:23.223Z,101408.53
2023-03-27T23:34:51.050Z,101412.03
2023-03-27T23:37:19.134Z,101417.31
2023-03-27T23:39:50.288Z,101412.00
2023-03-27T23:42:18.379Z,101409.41
2023-03-27T23:44:46.031Z,101423.53
2023-03-27T23:47:13.861Z,101434.94
2023-03-27T23:49:42.701Z,101427.91
2023-03-27T23:52:10.891Z,101434.94
2023-03-27T23:54:38.651Z,101436.72
2023-03-27T23:57:07.070Z,101450.84
2023-03-27T23:59:38.196Z,101444.66
